Kansai — JD3272 — position and weather

sailwx.info

Track history (hours):
 
Tides and Currents Weather Stations Pressure Air Temp Water Temp Dewpoint Dewpoint Depression Visibility Wind Speed Wind Dir Waves Ship Positions

Kansai

Last reported at 2014-Oct-31 02:19 UTC. Time now 2014-Nov-01 05:31 UTC.
Position N 33°58' E 135°00'.

Length 73 m; draft 4.2 m.

Type: Cargo ship. MMSI: 431003134.

Date/timePositionNaut miles runAvg speedWind from/ knotsBaromVisibWave heightAir tempDewpointWater temp
2014-Oct-31 02:19N 33°58' E 135°00'810.3
2014-Oct-31 01:33N 34°06' E 134°59'1610.8
2014-Oct-31 00:06N 34°22' E 134°60'610.9
2014-Oct-30 23:33N 34°28' E 135°01'10 8.2
2014-Oct-30 22:20N 34°37' E 134°56'2 0.1
2014-Oct-30 09:24N 34°37' E 134°54'8 9.5
2014-Oct-30 08:33N 34°36' E 135°03'1110.8
2014-Oct-30 07:33N 34°39' E 135°16'4 3.8
2014-Oct-30 06:33N 34°42' E 135°15'0 0.0
2014-Oct-30 05:33N 34°42' E 135°15'0 0.0
2014-Oct-30 04:33N 34°42' E 135°15'0 0.0
2014-Oct-30 03:33N 34°42' E 135°15'0 0.0
2014-Oct-30 02:33N 34°42' E 135°15'0 0.0
2014-Oct-30 01:33N 34°42' E 135°15'0 0.0
2014-Oct-30 00:33N 34°42' E 135°15'0 0.0
2014-Oct-29 23:33N 34°42' E 135°15'0 0.0
2014-Oct-29 22:33N 34°42' E 135°15'6 6.4
2014-Oct-29 21:33N 34°36' E 135°16'1110.8
2014-Oct-29 20:33N 34°36' E 135°03'1211.6
2014-Oct-29 19:33N 34°40' E 134°50'2 0.1
2014-Oct-29 04:23N 34°39' E 134°51'1112.9
2014-Oct-29 03:30N 34°36' E 135°04'  
2014-Oct-26 19:31N 34°01' E 134°59'1111.0
2014-Oct-26 18:33N 34°11' E 134°58'1312.6
2014-Oct-26 17:32N 34°24' E 135°00'1211.7
2014-Oct-26 16:33N 34°35' E 135°03'1311.7
2014-Oct-26 15:29N 34°40' E 134°49'1 0.0
2014-Oct-25 22:21N 34°40' E 134°48'1011.9
2014-Oct-25 21:30N 34°38' E 135°00'9 9.4
2014-Oct-25 20:32N 34°29' E 135°03'2311.1
2014-Oct-25 18:30N 34°07' E 135°00'  
2014-Oct-23 05:12N 33°60' E 135°00'1011.4
2014-Oct-23 04:17N 34°10' E 134°59'911.8
2014-Oct-23 03:31N 34°19' E 134°59'1111.3
2014-Oct-23 02:33N 34°30' E 135°02'9 7.1
2014-Oct-23 01:17N 34°37' E 134°55'7 0.4
2014-Oct-22 07:33N 34°41' E 134°49'3 0.3
2014-Oct-21 22:29N 34°39' E 134°51'1213.5
2014-Oct-21 21:33N 34°36' E 135°05'5 4.7
2014-Oct-21 20:33N 34°38' E 135°11'0 0.1
2014-Oct-21 19:33N 34°38' E 135°11'0 0.0
2014-Oct-21 18:33N 34°38' E 135°11'0 0.0
2014-Oct-21 17:33N 34°38' E 135°11'0 0.0
2014-Oct-21 16:33N 34°38' E 135°11'0 0.0
2014-Oct-21 15:33N 34°38' E 135°11'0 0.0
2014-Oct-21 14:33N 34°38' E 135°11'0 0.3
2014-Oct-21 13:33N 34°38' E 135°10'1211.5
2014-Oct-21 12:32N 34°28' E 135°04'  
Track history (hours):
 
Tides and Currents Weather Stations Pressure Air Temp Water Temp Dewpoint Dewpoint Depression Visibility Wind Speed Wind Dir Waves Ship Positions

Kansai

Last reported at 2014-Oct-31 02:19 UTC. Time now 2014-Nov-01 05:31 UTC.
Position N 33°58' E 135°00'.

Length 73 m; draft 4.2 m.

Type: Cargo ship. MMSI: 431003134.

Date/timePositionNaut miles runAvg speedWind from/ knotsBaromVisibWave heightAir tempDewpointWater temp
2014-Oct-31 02:19N 33°58' E 135°00'810.3
2014-Oct-31 01:33N 34°06' E 134°59'1610.8
2014-Oct-31 00:06N 34°22' E 134°60'610.9
2014-Oct-30 23:33N 34°28' E 135°01'10 8.2
2014-Oct-30 22:20N 34°37' E 134°56'2 0.1
2014-Oct-30 09:24N 34°37' E 134°54'8 9.5
2014-Oct-30 08:33N 34°36' E 135°03'1110.8
2014-Oct-30 07:33N 34°39' E 135°16'4 3.8
2014-Oct-30 06:33N 34°42' E 135°15'0 0.0
2014-Oct-30 05:33N 34°42' E 135°15'0 0.0
2014-Oct-30 04:33N 34°42' E 135°15'0 0.0
2014-Oct-30 03:33N 34°42' E 135°15'0 0.0
2014-Oct-30 02:33N 34°42' E 135°15'0 0.0
2014-Oct-30 01:33N 34°42' E 135°15'0 0.0
2014-Oct-30 00:33N 34°42' E 135°15'0 0.0
2014-Oct-29 23:33N 34°42' E 135°15'0 0.0
2014-Oct-29 22:33N 34°42' E 135°15'6 6.4
2014-Oct-29 21:33N 34°36' E 135°16'1110.8
2014-Oct-29 20:33N 34°36' E 135°03'1211.6
2014-Oct-29 19:33N 34°40' E 134°50'2 0.1
2014-Oct-29 04:23N 34°39' E 134°51'1112.9
2014-Oct-29 03:30N 34°36' E 135°04'  
2014-Oct-26 19:31N 34°01' E 134°59'1111.0
2014-Oct-26 18:33N 34°11' E 134°58'1312.6
2014-Oct-26 17:32N 34°24' E 135°00'1211.7
2014-Oct-26 16:33N 34°35' E 135°03'1311.7
2014-Oct-26 15:29N 34°40' E 134°49'1 0.0
2014-Oct-25 22:21N 34°40' E 134°48'1011.9
2014-Oct-25 21:30N 34°38' E 135°00'9 9.4
2014-Oct-25 20:32N 34°29' E 135°03'2311.1
2014-Oct-25 18:30N 34°07' E 135°00'  
2014-Oct-23 05:12N 33°60' E 135°00'1011.4
2014-Oct-23 04:17N 34°10' E 134°59'911.8
2014-Oct-23 03:31N 34°19' E 134°59'1111.3
2014-Oct-23 02:33N 34°30' E 135°02'9 7.1
2014-Oct-23 01:17N 34°37' E 134°55'7 0.4
2014-Oct-22 07:33N 34°41' E 134°49'3 0.3
2014-Oct-21 22:29N 34°39' E 134°51'1213.5
2014-Oct-21 21:33N 34°36' E 135°05'5 4.7
2014-Oct-21 20:33N 34°38' E 135°11'0 0.1
2014-Oct-21 19:33N 34°38' E 135°11'0 0.0
2014-Oct-21 18:33N 34°38' E 135°11'0 0.0
2014-Oct-21 17:33N 34°38' E 135°11'0 0.0
2014-Oct-21 16:33N 34°38' E 135°11'0 0.0
2014-Oct-21 15:33N 34°38' E 135°11'0 0.0
2014-Oct-21 14:33N 34°38' E 135°11'0 0.3
2014-Oct-21 13:33N 34°38' E 135°10'1211.5
2014-Oct-21 12:32N 34°28' E 135°04'  

Dump ship's entire track history